ULLI/LED METAR and TAF weather

Enter ICAO airport designator
Station Type Date Time Source
ULLI METAR 2020/07/04 01:30 UTC NOAA

ULLI 040130Z 21003MPS 9999 SCT033CB BKN049 15/10 Q1010 R28R/190055 NOSIG


Station Type Date Time Source
ULLI Decoded METAR 2020/07/04 01:30 UTC NOAA

St. Peterburg, Russia (ULLI) 59-58N 030-18E 6M
Jul 03, 2020 - 09:30 PM EDT / 2020.07.04 0130 UTC
Wind: from the SSW (210 degrees) at 7 MPH (6 KT):0
Visibility: greater than 7 mile(s):0
Sky conditions: mostly cloudy
Weather: Cumulonimbus clouds observed
Temperature: 59 F (15 C)
Dew Point: 50 F (10 C)
Relative Humidity: 72%
Pressure (altimeter): 29.83 in. Hg (1010 hPa)
ob: ULLI 040130Z 21003MPS 9999 SCT033CB BKN049 15/10 Q1010 R28R/190055 NOSIG
cycle: 1

Station Type Date Time Source
ULLI TAF 2020/07/03 21:21 UTC NOAA

TAF TAF ULLI 031955Z 0321/0421 30003MPS 9999 BKN020
TEMPO 0321/0405 3100 BR
TEMPO 0405/0407 3100 -SHRA BR BKN011 BKN015CB
TEMPO 0407/0421 3100 -SHRA BKN015CB

Example: see airport list